フォルタレザ の空港の天気 - METARとTAF

フォルタレザ/ピント・マーティンズ国際空港 ( SBFZ / FOR ) - ブラジル セアラー州フォルタレザ
飛行場実況気象(Metar)
観測時間01/23 01:00 BRT (01/23 04:00 UTC)
風向・風速東 6m/s
視程10km以上
天気現象
全天の4割程度の雲 雲底高度 610m
全天の4割程度の雲 雲底高度 3050m
気温28℃
湿度74%
気圧1009hPa
METARSBFZ 230400Z 08011KT 9999 SCT020 SCT100 28/23 Q1009
過去の天気等 Google飛行場航空写真 Wunderground天気予報

過去48時間のMETAR

飛行場予報(TAF)
発表時間: 1/22 19:00 BRT (1/22 22:00 UTC)
予報対象時間: 22日21時 BRT ~ 23日21時 BRT
風向・風速東 5m/s
視程8,000m
全天の4割程度の雲 雲底高度 610m
23日4時 BRT ~ 23日5時 BRT に徐々に
全天の8割程度の雲 雲底高度 550m
23日6時 BRT ~ 23日8時 BRT に 確率 40% で一時的に
視程4,000m
天気現象
23日9時 BRT ~ 23日10時 BRT に徐々に
視程1,001m
23日12時 BRT ~ 23日13時 BRT に徐々に
全天の4割程度の雲 雲底高度 910m
23日16時 BRT ~ 23日17時 BRT に徐々に
風向・風速東 5m/s
TAF SBFZ 222200Z 2300/2324 08009KT 8000 SCT020 TN26/2308Z TX30/2316Z
BECMG 2307/2308 BKN018
PROB40 TEMPO 2309/2311 4000 RA
BECMG 2312/2313 1001 4KT
BECMG 2315/2316 SCT030
BECMG 2319/2320 08009KT RMK PEI